sensor_id;sensor_type;location;lat;lon;timestamp;pressure;altitude;pressure_sealevel;temperature;humidity
76808;BME280;65758;45.458;11.062;2024-03-23T00:54:21;100892.52;;;13.04;58.93
76808;BME280;65758;45.458;11.062;2024-03-23T00:56:48;100890.33;;;13.01;58.99
76808;BME280;65758;45.458;11.062;2024-03-23T00:59:14;100888.70;;;13.00;58.96
76808;BME280;65758;45.458;11.062;2024-03-23T01:01:41;100886.25;;;12.98;59.01
76808;BME280;65758;45.458;11.062;2024-03-23T01:04:08;100879.92;;;12.95;59.08
76808;BME280;65758;45.458;11.062;2024-03-23T01:06:34;100878.65;;;12.92;59.22
76808;BME280;65758;45.458;11.062;2024-03-23T01:09:01;100875.60;;;12.91;59.29
76808;BME280;65758;45.458;11.062;2024-03-23T01:11:28;100871.89;;;12.88;59.32
76808;BME280;65758;45.458;11.062;2024-03-23T01:13:55;100871.95;;;12.85;59.35
76808;BME280;65758;45.458;11.062;2024-03-23T01:16:22;100865.19;;;12.83;59.27
76808;BME280;65758;45.458;11.062;2024-03-23T01:18:49;100865.63;;;12.81;59.52
76808;BME280;65758;45.458;11.062;2024-03-23T01:21:15;100862.64;;;12.80;59.54
76808;BME280;65758;45.458;11.062;2024-03-23T01:23:42;100861.48;;;12.80;59.46
76808;BME280;65758;45.458;11.062;2024-03-23T01:26:09;100858.98;;;12.78;59.51
76808;BME280;65758;45.458;11.062;2024-03-23T01:28:36;100859.86;;;12.78;59.65
76808;BME280;65758;45.458;11.062;2024-03-23T01:31:03;100860.08;;;12.77;59.68
76808;BME280;65758;45.458;11.062;2024-03-23T01:33:29;100858.77;;;12.77;59.73
76808;BME280;65758;45.458;11.062;2024-03-23T01:35:56;100860.96;;;12.77;59.56
76808;BME280;65758;45.458;11.062;2024-03-23T01:38:23;100856.34;;;12.76;59.46
76808;BME280;65758;45.458;11.062;2024-03-23T01:40:49;100852.30;;;12.75;59.67
76808;BME280;65758;45.458;11.062;2024-03-23T01:43:16;100847.86;;;12.73;59.51
76808;BME280;65758;45.458;11.062;2024-03-23T01:45:42;100846.54;;;12.72;59.26
76808;BME280;65758;45.458;11.062;2024-03-23T01:48:09;100847.61;;;12.71;59.89
76808;BME280;65758;45.458;11.062;2024-03-23T01:50:39;100844.49;;;12.70;59.70
76808;BME280;65758;45.458;11.062;2024-03-23T01:53:05;100850.11;;;12.70;59.79
76808;BME280;65758;45.458;11.062;2024-03-23T01:55:33;100850.91;;;12.70;59.59
76808;BME280;65758;45.458;11.062;2024-03-23T01:58:00;100846.55;;;12.69;59.84
76808;BME280;65758;45.458;11.062;2024-03-23T02:00:26;100844.84;;;12.68;59.60
76808;BME280;65758;45.458;11.062;2024-03-23T02:02:54;100841.56;;;12.67;59.84
76808;BME280;65758;45.458;11.062;2024-03-23T02:05:22;100835.90;;;12.67;59.82
76808;BME280;65758;45.458;11.062;2024-03-23T02:07:49;100831.75;;;12.65;59.90
76808;BME280;65758;45.458;11.062;2024-03-23T02:10:17;100829.20;;;12.64;59.88
76808;BME280;65758;45.458;11.062;2024-03-23T02:12:43;100829.30;;;12.63;59.85
76808;BME280;65758;45.458;11.062;2024-03-23T02:15:10;100822.96;;;12.63;59.96
76808;BME280;65758;45.458;11.062;2024-03-23T02:17:37;100822.15;;;12.61;59.83
76808;BME280;65758;45.458;11.062;2024-03-23T02:20:04;100821.34;;;12.59;59.84
76808;BME280;65758;45.458;11.062;2024-03-23T02:22:37;100819.41;;;12.57;60.21
76808;BME280;65758;45.458;11.062;2024-03-23T02:25:07;100818.31;;;12.56;60.22
76808;BME280;65758;45.458;11.062;2024-03-23T02:27:33;100815.20;;;12.55;60.20
76808;BME280;65758;45.458;11.062;2024-03-23T02:30:06;100814.63;;;12.54;60.27
76808;BME280;65758;45.458;11.062;2024-03-23T02:32:32;100813.79;;;12.49;60.44
76808;BME280;65758;45.458;11.062;2024-03-23T02:34:59;100809.48;;;12.44;60.49
76808;BME280;65758;45.458;11.062;2024-03-23T02:37:26;100804.50;;;12.43;60.33
76808;BME280;65758;45.458;11.062;2024-03-23T02:39:52;100805.44;;;12.41;60.41
76808;BME280;65758;45.458;11.062;2024-03-23T02:42:19;100802.08;;;12.40;60.65
76808;BME280;65758;45.458;11.062;2024-03-23T02:44:46;100800.66;;;12.39;60.65
76808;BME280;65758;45.458;11.062;2024-03-23T02:47:13;100802.81;;;12.37;60.58
76808;BME280;65758;45.458;11.062;2024-03-23T02:49:40;100797.23;;;12.38;60.66
76808;BME280;65758;45.458;11.062;2024-03-23T02:52:06;100796.70;;;12.38;61.02
76808;BME280;65758;45.458;11.062;2024-03-23T02:54:33;100795.66;;;12.39;60.87
76808;BME280;65758;45.458;11.062;2024-03-23T02:56:59;100793.16;;;12.38;60.71
76808;BME280;65758;45.458;11.062;2024-03-23T02:59:26;100792.24;;;12.38;61.12
76808;BME280;65758;45.458;11.062;2024-03-23T03:01:52;100789.54;;;12.38;61.20
76808;BME280;65758;45.458;11.062;2024-03-23T03:04:19;100793.15;;;12.35;61.12
76808;BME280;65758;45.458;11.062;2024-03-23T03:06:49;100793.77;;;12.34;61.09
76808;BME280;65758;45.458;11.062;2024-03-23T03:09:15;100790.45;;;12.35;61.67
76808;BME280;65758;45.458;11.062;2024-03-23T03:11:42;100790.75;;;12.38;61.54
76808;BME280;65758;45.458;11.062;2024-03-23T03:14:08;100788.83;;;12.37;61.49
76808;BME280;65758;45.458;11.062;2024-03-23T03:16:35;100788.93;;;12.35;61.30
76808;BME280;65758;45.458;11.062;2024-03-23T03:19:02;100785.76;;;12.34;61.19
76808;BME280;65758;45.458;11.062;2024-03-23T03:21:28;100785.11;;;12.32;61.20
76808;BME280;65758;45.458;11.062;2024-03-23T03:23:56;100778.59;;;12.30;61.24
76808;BME280;65758;45.458;11.062;2024-03-23T03:26:23;100778.34;;;12.29;61.22
76808;BME280;65758;45.458;11.062;2024-03-23T03:28:50;100771.96;;;12.26;61.26
76808;BME280;65758;45.458;11.062;2024-03-23T03:31:18;100767.07;;;12.23;61.50
76808;BME280;65758;45.458;11.062;2024-03-23T03:33:45;100766.95;;;12.21;61.23
76808;BME280;65758;45.458;11.062;2024-03-23T03:36:11;100768.61;;;12.17;61.58
76808;BME280;65758;45.458;11.062;2024-03-23T03:38:38;100765.31;;;12.15;61.49
76808;BME280;65758;45.458;11.062;2024-03-23T03:41:05;100763.80;;;12.13;61.54
76808;BME280;65758;45.458;11.062;2024-03-23T03:43:32;100759.64;;;12.11;61.61
76808;BME280;65758;45.458;11.062;2024-03-23T03:46:00;100761.48;;;12.09;62.00
76808;BME280;65758;45.458;11.062;2024-03-23T03:48:28;100754.66;;;12.08;62.00
76808;BME280;65758;45.458;11.062;2024-03-23T03:50:55;100753.52;;;12.06;62.00
76808;BME280;65758;45.458;11.062;2024-03-23T03:53:21;100749.08;;;12.04;62.11
76808;BME280;65758;45.458;11.062;2024-03-23T03:55:48;100738.33;;;12.02;62.11
76808;BME280;65758;45.458;11.062;2024-03-23T03:58:15;100735.65;;;12.00;62.39
76808;BME280;65758;45.458;11.062;2024-03-23T04:00:42;100734.45;;;11.98;62.14
76808;BME280;65758;45.458;11.062;2024-03-23T04:03:08;100734.48;;;11.96;62.33
76808;BME280;65758;45.458;11.062;2024-03-23T04:05:35;100736.09;;;11.96;62.34
76808;BME280;65758;45.458;11.062;2024-03-23T04:08:02;100729.83;;;11.95;62.07
76808;BME280;65758;45.458;11.062;2024-03-23T04:10:28;100725.02;;;11.94;62.41
76808;BME280;65758;45.458;11.062;2024-03-23T04:12:55;100720.80;;;11.94;62.28
76808;BME280;65758;45.458;11.062;2024-03-23T04:15:21;100719.83;;;11.90;62.58
76808;BME280;65758;45.458;11.062;2024-03-23T04:17:48;100724.02;;;11.89;62.16
76808;BME280;65758;45.458;11.062;2024-03-23T04:20:14;100718.23;;;11.87;62.03
76808;BME280;65758;45.458;11.062;2024-03-23T04:22:43;100720.29;;;11.84;62.38
76808;BME280;65758;45.458;11.062;2024-03-23T04:25:10;100719.19;;;11.82;62.02
76808;BME280;65758;45.458;11.062;2024-03-23T04:27:37;100717.56;;;11.81;62.01
76808;BME280;65758;45.458;11.062;2024-03-23T04:30:04;100712.90;;;11.80;62.33
76808;BME280;65758;45.458;11.062;2024-03-23T04:32:39;100710.21;;;11.80;62.49
76808;BME280;65758;45.458;11.062;2024-03-23T04:35:06;100708.30;;;11.82;62.55
76808;BME280;65758;45.458;11.062;2024-03-23T04:37:37;100711.67;;;11.82;62.39
76808;BME280;65758;45.458;11.062;2024-03-23T04:40:04;100712.04;;;11.84;62.49
76808;BME280;65758;45.458;11.062;2024-03-23T04:42:31;100710.31;;;11.85;62.62
76808;BME280;65758;45.458;11.062;2024-03-23T04:44:58;100709.05;;;11.85;62.36
76808;BME280;65758;45.458;11.062;2024-03-23T04:47:24;100705.44;;;11.85;62.53
76808;BME280;65758;45.458;11.062;2024-03-23T04:49:52;100704.16;;;11.84;62.33
76808;BME280;65758;45.458;11.062;2024-03-23T04:52:19;100704.41;;;11.83;62.50
76808;BME280;65758;45.458;11.062;2024-03-23T04:54:45;100706.24;;;11.82;62.78
76808;BME280;65758;45.458;11.062;2024-03-23T04:57:12;100700.96;;;11.83;62.73
76808;BME280;65758;45.458;11.062;2024-03-23T04:59:46;100705.89;;;11.83;62.72
76808;BME280;65758;45.458;11.062;2024-03-23T05:02:14;100704.08;;;11.83;62.50
76808;BME280;65758;45.458;11.062;2024-03-23T05:04:41;100699.88;;;11.82;62.71
76808;BME280;65758;45.458;11.062;2024-03-23T05:07:08;100695.32;;;11.82;62.96
76808;BME280;65758;45.458;11.062;2024-03-23T05:09:35;100692.73;;;11.81;62.49
76808;BME280;65758;45.458;11.062;2024-03-23T05:12:02;100689.03;;;11.80;62.72
76808;BME280;65758;45.458;11.062;2024-03-23T05:14:29;100687.70;;;11.78;62.60
76808;BME280;65758;45.458;11.062;2024-03-23T05:16:55;100685.05;;;11.76;62.47
76808;BME280;65758;45.458;11.062;2024-03-23T05:19:22;100680.36;;;11.73;63.05
76808;BME280;65758;45.458;11.062;2024-03-23T05:21:49;100681.39;;;11.73;62.87
76808;BME280;65758;45.458;11.062;2024-03-23T05:24:15;100679.13;;;11.72;63.13
76808;BME280;65758;45.458;11.062;2024-03-23T05:26:42;100673.98;;;11.72;63.23
76808;BME280;65758;45.458;11.062;2024-03-23T05:29:09;100674.58;;;11.74;63.00
76808;BME280;65758;45.458;11.062;2024-03-23T05:31:37;100674.10;;;11.75;63.03
76808;BME280;65758;45.458;11.062;2024-03-23T05:34:04;100669.50;;;11.73;62.94
76808;BME280;65758;45.458;11.062;2024-03-23T05:36:30;100670.80;;;11.75;62.92
76808;BME280;65758;45.458;11.062;2024-03-23T05:38:59;100673.33;;;11.78;63.20
76808;BME280;65758;45.458;11.062;2024-03-23T05:41:25;100666.60;;;11.82;63.33
76808;BME280;65758;45.458;11.062;2024-03-23T05:43:52;100667.24;;;11.86;62.92
76808;BME280;65758;45.458;11.062;2024-03-23T05:46:19;100667.39;;;11.92;62.79
76808;BME280;65758;45.458;11.062;2024-03-23T05:48:45;100666.53;;;12.05;62.64
76808;BME280;65758;45.458;11.062;2024-03-23T05:51:12;100659.27;;;12.22;62.23
76808;BME280;65758;45.458;11.062;2024-03-23T05:53:39;100659.20;;;12.40;62.58
76808;BME280;65758;45.458;11.062;2024-03-23T05:56:06;100657.36;;;12.65;62.68
76808;BME280;65758;45.458;11.062;2024-03-23T05:58:33;100656.30;;;12.87;62.03
76808;BME280;65758;45.458;11.062;2024-03-23T06:01:01;100650.64;;;13.09;61.65
76808;BME280;65758;45.458;11.062;2024-03-23T06:03:28;100652.82;;;13.21;61.02
76808;BME280;65758;45.458;11.062;2024-03-23T06:05:56;100651.23;;;13.19;60.92
76808;BME280;65758;45.458;11.062;2024-03-23T06:08:23;100649.81;;;13.14;60.84
76808;BME280;65758;45.458;11.062;2024-03-23T06:10:51;100649.59;;;13.11;61.21
76808;BME280;65758;45.458;11.062;2024-03-23T06:13:17;100648.31;;;13.09;61.05
76808;BME280;65758;45.458;11.062;2024-03-23T06:15:44;100649.28;;;13.08;61.33
76808;BME280;65758;45.458;11.062;2024-03-23T06:18:12;100646.29;;;13.06;61.26
76808;BME280;65758;45.458;11.062;2024-03-23T06:20:40;100642.66;;;13.06;61.38
76808;BME280;65758;45.458;11.062;2024-03-23T06:23:07;100645.86;;;13.09;61.66
76808;BME280;65758;45.458;11.062;2024-03-23T06:25:33;100646.41;;;13.11;61.50
76808;BME280;65758;45.458;11.062;2024-03-23T06:28:00;100650.75;;;13.12;61.52
76808;BME280;65758;45.458;11.062;2024-03-23T06:30:30;100650.48;;;13.13;61.46
76808;BME280;65758;45.458;11.062;2024-03-23T06:32:58;100651.86;;;13.19;61.40
76808;BME280;65758;45.458;11.062;2024-03-23T06:35:25;100650.52;;;13.25;61.82
76808;BME280;65758;45.458;11.062;2024-03-23T06:37:51;100650.90;;;13.37;62.77
76808;BME280;65758;45.458;11.062;2024-03-23T06:40:19;100646.84;;;13.50;62.55
76808;BME280;65758;45.458;11.062;2024-03-23T06:42:45;100643.70;;;13.62;61.97
76808;BME280;65758;45.458;11.062;2024-03-23T06:45:12;100643.05;;;13.72;61.74
76808;BME280;65758;45.458;11.062;2024-03-23T06:47:38;100644.20;;;13.85;61.67
76808;BME280;65758;45.458;11.062;2024-03-23T06:50:06;100645.20;;;13.96;61.59
76808;BME280;65758;45.458;11.062;2024-03-23T06:52:33;100644.55;;;14.08;61.65
76808;BME280;65758;45.458;11.062;2024-03-23T06:54:59;100642.59;;;14.20;61.41
76808;BME280;65758;45.458;11.062;2024-03-23T06:57:26;100636.80;;;14.33;61.16
76808;BME280;65758;45.458;11.062;2024-03-23T06:59:53;100632.22;;;14.48;61.20
76808;BME280;65758;45.458;11.062;2024-03-23T07:02:20;100629.65;;;14.62;60.93
76808;BME280;65758;45.458;11.062;2024-03-23T07:04:46;100630.80;;;14.74;60.81
76808;BME280;65758;45.458;11.062;2024-03-23T07:07:13;100627.22;;;14.83;60.79
76808;BME280;65758;45.458;11.062;2024-03-23T07:09:39;100624.73;;;14.92;60.55
76808;BME280;65758;45.458;11.062;2024-03-23T07:12:06;100621.27;;;14.98;60.80
76808;BME280;65758;45.458;11.062;2024-03-23T07:14:33;100617.71;;;15.05;60.84
76808;BME280;65758;45.458;11.062;2024-03-23T07:17:00;100613.16;;;15.13;60.51
76808;BME280;65758;45.458;11.062;2024-03-23T07:19:26;100610.01;;;15.22;60.13
76808;BME280;65758;45.458;11.062;2024-03-23T07:21:53;100606.99;;;15.30;59.91
76808;BME280;65758;45.458;11.062;2024-03-23T07:24:20;100601.42;;;15.36;59.73
76808;BME280;65758;45.458;11.062;2024-03-23T07:26:47;100597.17;;;15.41;59.43
76808;BME280;65758;45.458;11.062;2024-03-23T07:29:14;100592.12;;;15.48;59.28
76808;BME280;65758;45.458;11.062;2024-03-23T07:31:41;100597.46;;;15.59;59.08
76808;BME280;65758;45.458;11.062;2024-03-23T07:34:07;100594.68;;;15.68;59.02
76808;BME280;65758;45.458;11.062;2024-03-23T07:36:34;100597.00;;;15.77;59.06
76808;BME280;65758;45.458;11.062;2024-03-23T07:39:01;100595.10;;;15.87;58.94
76808;BME280;65758;45.458;11.062;2024-03-23T07:41:38;100592.58;;;15.99;58.79
76808;BME280;65758;45.458;11.062;2024-03-23T07:44:05;100587.64;;;16.12;58.47
76808;BME280;65758;45.458;11.062;2024-03-23T07:46:31;100593.60;;;16.29;58.57
76808;BME280;65758;45.458;11.062;2024-03-23T07:48:58;100591.03;;;16.49;57.99
76808;BME280;65758;45.458;11.062;2024-03-23T07:51:25;100584.06;;;16.65;57.65
76808;BME280;65758;45.458;11.062;2024-03-23T07:53:51;100574.81;;;16.70;57.77
76808;BME280;65758;45.458;11.062;2024-03-23T07:56:19;100575.15;;;16.77;57.56
76808;BME280;65758;45.458;11.062;2024-03-23T07:58:46;100572.03;;;16.86;57.22
76808;BME280;65758;45.458;11.062;2024-03-23T08:01:15;100570.95;;;16.94;56.89
76808;BME280;65758;45.458;11.062;2024-03-23T08:03:44;100564.88;;;17.00;56.68
76808;BME280;65758;45.458;11.062;2024-03-23T08:06:18;100562.06;;;17.06;56.44
76808;BME280;65758;45.458;11.062;2024-03-23T08:08:48;100553.12;;;17.13;56.02
76808;BME280;65758;45.458;11.062;2024-03-23T08:11:15;100548.77;;;17.17;55.68
76808;BME280;65758;45.458;11.062;2024-03-23T08:13:45;100548.21;;;17.23;55.69
76808;BME280;65758;45.458;11.062;2024-03-23T08:16:11;100544.23;;;17.31;55.52
76808;BME280;65758;45.458;11.062;2024-03-23T08:18:40;100546.06;;;17.38;55.43
76808;BME280;65758;45.458;11.062;2024-03-23T08:21:07;100554.47;;;17.44;55.39
76808;BME280;65758;45.458;11.062;2024-03-23T08:23:34;100548.77;;;17.50;55.58
76808;BME280;65758;45.458;11.062;2024-03-23T08:26:12;100549.52;;;17.58;55.57
76808;BME280;65758;45.458;11.062;2024-03-23T08:28:39;100555.82;;;17.63;55.31
76808;BME280;65758;45.458;11.062;2024-03-23T08:31:11;100561.69;;;17.67;54.90
76808;BME280;65758;45.458;11.062;2024-03-23T08:33:38;100563.78;;;17.74;54.49
76808;BME280;65758;45.458;11.062;2024-03-23T08:36:07;100567.22;;;17.79;54.15
76808;BME280;65758;45.458;11.062;2024-03-23T08:38:34;100572.41;;;17.84;54.15
76808;BME280;65758;45.458;11.062;2024-03-23T08:41:02;100570.30;;;17.91;54.50
76808;BME280;65758;45.458;11.062;2024-03-23T08:43:31;100566.63;;;17.98;53.79
76808;BME280;65758;45.458;11.062;2024-03-23T08:46:08;100567.16;;;18.05;53.78
76808;BME280;65758;45.458;11.062;2024-03-23T08:48:40;100564.83;;;18.12;53.67
76808;BME280;65758;45.458;11.062;2024-03-23T08:51:08;100559.66;;;18.17;52.96
76808;BME280;65758;45.458;11.062;2024-03-23T08:53:35;100557.71;;;18.20;52.97
76808;BME280;65758;45.458;11.062;2024-03-23T08:56:03;100549.77;;;18.26;52.84
76808;BME280;65758;45.458;11.062;2024-03-23T08:58:30;100547.92;;;18.33;52.56
76808;BME280;65758;45.458;11.062;2024-03-23T09:01:10;100547.50;;;18.39;52.44
76808;BME280;65758;45.458;11.062;2024-03-23T09:03:37;100538.23;;;18.45;51.91
76808;BME280;65758;45.458;11.062;2024-03-23T09:06:12;100536.05;;;18.52;52.25
76808;BME280;65758;45.458;11.062;2024-03-23T09:08:39;100532.30;;;18.62;52.35
76808;BME280;65758;45.458;11.062;2024-03-23T09:11:08;100529.15;;;18.71;51.67
76808;BME280;65758;45.458;11.062;2024-03-23T09:13:36;100527.91;;;18.75;51.31
76808;BME280;65758;45.458;11.062;2024-03-23T09:16:04;100522.61;;;18.81;51.67
76808;BME280;65758;45.458;11.062;2024-03-23T09:18:35;100525.98;;;18.90;51.66
76808;BME280;65758;45.458;11.062;2024-03-23T09:21:03;100523.60;;;18.99;51.44
76808;BME280;65758;45.458;11.062;2024-03-23T09:23:30;100524.40;;;19.03;51.47
76808;BME280;65758;45.458;11.062;2024-03-23T09:25:57;100524.02;;;19.09;51.15
76808;BME280;65758;45.458;11.062;2024-03-23T09:28:23;100517.37;;;19.11;50.73
76808;BME280;65758;45.458;11.062;2024-03-23T09:30:50;100512.09;;;19.17;50.82
76808;BME280;65758;45.458;11.062;2024-03-23T09:33:17;100509.01;;;19.21;50.47
76808;BME280;65758;45.458;11.062;2024-03-23T09:35:44;100506.26;;;19.25;50.48
76808;BME280;65758;45.458;11.062;2024-03-23T09:38:11;100498.61;;;19.30;50.55
76808;BME280;65758;45.458;11.062;2024-03-23T09:40:41;100497.15;;;19.34;50.04
76808;BME280;65758;45.458;11.062;2024-03-23T09:43:12;100491.73;;;19.36;49.95
76808;BME280;65758;45.458;11.062;2024-03-23T09:45:40;100492.99;;;19.39;49.81
76808;BME280;65758;45.458;11.062;2024-03-23T09:48:10;100496.36;;;19.40;50.08
76808;BME280;65758;45.458;11.062;2024-03-23T09:50:41;100496.38;;;19.48;50.13
76808;BME280;65758;45.458;11.062;2024-03-23T09:53:12;100499.74;;;19.56;50.12
76808;BME280;65758;45.458;11.062;2024-03-23T09:55:42;100493.52;;;19.64;50.40
76808;BME280;65758;45.458;11.062;2024-03-23T09:58:12;100492.88;;;19.75;50.25
76808;BME280;65758;45.458;11.062;2024-03-23T10:00:39;100487.89;;;19.81;49.53
76808;BME280;65758;45.458;11.062;2024-03-23T10:03:06;100488.95;;;19.81;49.55
76808;BME280;65758;45.458;11.062;2024-03-23T10:05:34;100488.59;;;19.88;50.03
76808;BME280;65758;45.458;11.062;2024-03-23T10:10:43;100476.38;;;20.12;50.13
76808;BME280;65758;45.458;11.062;2024-03-23T10:13:10;100467.55;;;20.24;50.57
76808;BME280;65758;45.458;11.062;2024-03-23T10:15:40;100456.23;;;20.33;50.04
76808;BME280;65758;45.458;11.062;2024-03-23T10:18:20;100445.03;;;20.39;49.27
76808;BME280;65758;45.458;11.062;2024-03-23T10:23:42;100427.63;;;20.47;49.32
76808;BME280;65758;45.458;11.062;2024-03-23T10:29:00;100413.30;;;20.67;49.10
76808;BME280;65758;45.458;11.062;2024-03-23T10:31:28;100400.55;;;20.73;48.25
76808;BME280;65758;45.458;11.062;2024-03-23T10:33:57;100394.80;;;20.74;48.39
76808;BME280;65758;45.458;11.062;2024-03-23T10:36:24;100392.20;;;20.79;48.48
76808;BME280;65758;45.458;11.062;2024-03-23T10:38:54;100389.64;;;20.86;47.50
76808;BME280;65758;45.458;11.062;2024-03-23T10:41:21;100388.58;;;20.86;46.98
76808;BME280;65758;45.458;11.062;2024-03-23T10:43:48;100388.34;;;20.87;47.22
76808;BME280;65758;45.458;11.062;2024-03-23T10:46:16;100390.05;;;20.94;48.00
76808;BME280;65758;45.458;11.062;2024-03-23T10:48:43;100384.45;;;21.03;47.55
76808;BME280;65758;45.458;11.062;2024-03-23T10:51:10;100378.23;;;21.10;47.18
76808;BME280;65758;45.458;11.062;2024-03-23T10:53:37;100371.22;;;21.14;46.94
76808;BME280;65758;45.458;11.062;2024-03-23T10:56:05;100369.20;;;21.18;46.78
76808;BME280;65758;45.458;11.062;2024-03-23T10:58:40;100366.32;;;21.23;46.65
76808;BME280;65758;45.458;11.062;2024-03-23T11:01:11;100364.03;;;21.26;46.52
76808;BME280;65758;45.458;11.062;2024-03-23T11:03:40;100361.31;;;21.29;46.66
76808;BME280;65758;45.458;11.062;2024-03-23T11:06:34;100351.16;;;21.33;46.70
76808;BME280;65758;45.458;11.062;2024-03-23T11:09:01;100345.11;;;21.40;46.43
76808;BME280;65758;45.458;11.062;2024-03-23T11:11:28;100340.86;;;21.47;46.11
76808;BME280;65758;45.458;11.062;2024-03-23T11:13:58;100338.98;;;21.52;45.82
76808;BME280;65758;45.458;11.062;2024-03-23T11:16:27;100332.64;;;21.59;46.08
76808;BME280;65758;45.458;11.062;2024-03-23T11:19:36;100325.45;;;21.68;46.05
76808;BME280;65758;45.458;11.062;2024-03-23T11:22:04;100316.30;;;21.78;45.16
76808;BME280;65758;45.458;11.062;2024-03-23T11:24:31;100312.67;;;21.84;44.97
76808;BME280;65758;45.458;11.062;2024-03-23T11:27:02;100308.18;;;21.85;44.98
76808;BME280;65758;45.458;11.062;2024-03-23T11:29:30;100300.41;;;21.89;44.41
76808;BME280;65758;45.458;11.062;2024-03-23T11:31:57;100295.95;;;21.93;44.31
76808;BME280;65758;45.458;11.062;2024-03-23T11:34:25;100293.13;;;21.97;44.03
76808;BME280;65758;45.458;11.062;2024-03-23T11:37:04;100282.06;;;21.99;43.87
76808;BME280;65758;45.458;11.062;2024-03-23T11:39:31;100276.20;;;21.99;43.86
76808;BME280;65758;45.458;11.062;2024-03-23T11:41:58;100264.94;;;22.05;44.09
76808;BME280;65758;45.458;11.062;2024-03-23T11:44:26;100259.18;;;22.03;44.75
76808;BME280;65758;45.458;11.062;2024-03-23T11:46:53;100255.46;;;22.11;44.73
76808;BME280;65758;45.458;11.062;2024-03-23T11:49:24;100253.23;;;22.16;44.18
76808;BME280;65758;45.458;11.062;2024-03-23T11:51:52;100249.83;;;22.09;44.02
76808;BME280;65758;45.458;11.062;2024-03-23T11:54:25;100243.35;;;22.05;43.05
76808;BME280;65758;45.458;11.062;2024-03-23T11:57:00;100237.39;;;21.96;43.61
76808;BME280;65758;45.458;11.062;2024-03-23T11:59:40;100228.57;;;21.87;44.06
76808;BME280;65758;45.458;11.062;2024-03-23T12:02:11;100226.92;;;21.84;43.87
76808;BME280;65758;45.458;11.062;2024-03-23T12:04:41;100220.34;;;21.93;42.99
76808;BME280;65758;45.458;11.062;2024-03-23T12:07:19;100211.98;;;22.00;42.23
76808;BME280;65758;45.458;11.062;2024-03-23T12:09:47;100201.54;;;22.06;41.51
76808;BME280;65758;45.458;11.062;2024-03-23T12:12:28;100197.36;;;22.12;41.67
76808;BME280;65758;45.458;11.062;2024-03-23T12:15:06;100192.11;;;22.19;41.81
76808;BME280;65758;45.458;11.062;2024-03-23T12:17:34;100188.29;;;22.33;42.82
76808;BME280;65758;45.458;11.062;2024-03-23T12:20:04;100187.28;;;22.44;42.12
76808;BME280;65758;45.458;11.062;2024-03-23T12:22:31;100182.04;;;22.46;41.95
76808;BME280;65758;45.458;11.062;2024-03-23T12:24:58;100175.40;;;22.44;42.59
76808;BME280;65758;45.458;11.062;2024-03-23T12:27:24;100158.47;;;22.37;42.62
76808;BME280;65758;45.458;11.062;2024-03-23T12:29:51;100155.41;;;22.37;42.66
76808;BME280;65758;45.458;11.062;2024-03-23T12:32:18;100149.18;;;22.42;42.68
76808;BME280;65758;45.458;11.062;2024-03-23T12:34:46;100148.97;;;22.52;43.33
76808;BME280;65758;45.458;11.062;2024-03-23T12:37:13;100145.42;;;22.64;42.74
76808;BME280;65758;45.458;11.062;2024-03-23T12:39:45;100137.77;;;22.80;41.85
76808;BME280;65758;45.458;11.062;2024-03-23T12:42:12;100135.86;;;22.97;43.45
76808;BME280;65758;45.458;11.062;2024-03-23T12:44:39;100134.23;;;23.01;42.86
76808;BME280;65758;45.458;11.062;2024-03-23T12:47:05;100132.90;;;22.98;42.55
76808;BME280;65758;45.458;11.062;2024-03-23T12:49:32;100123.10;;;22.92;42.51
76808;BME280;65758;45.458;11.062;2024-03-23T12:51:58;100119.25;;;22.92;42.19
76808;BME280;65758;45.458;11.062;2024-03-23T12:54:26;100115.12;;;22.90;41.81
76808;BME280;65758;45.458;11.062;2024-03-23T12:56:53;100113.85;;;22.94;41.63
76808;BME280;65758;45.458;11.062;2024-03-23T12:59:19;100102.91;;;22.83;41.74
76808;BME280;65758;45.458;11.062;2024-03-23T13:01:46;100098.50;;;22.76;42.15
76808;BME280;65758;45.458;11.062;2024-03-23T13:04:13;100098.53;;;22.69;41.91
76808;BME280;65758;45.458;11.062;2024-03-23T13:06:39;100097.33;;;22.58;41.84
76808;BME280;65758;45.458;11.062;2024-03-23T13:09:06;100093.56;;;22.47;42.06
76808;BME280;65758;45.458;11.062;2024-03-23T13:11:33;100086.42;;;22.36;42.02
76808;BME280;65758;45.458;11.062;2024-03-23T13:13:59;100082.00;;;22.36;43.14
76808;BME280;65758;45.458;11.062;2024-03-23T13:16:26;100088.52;;;22.32;42.62
76808;BME280;65758;45.458;11.062;2024-03-23T13:18:53;100090.54;;;22.25;43.01
76808;BME280;65758;45.458;11.062;2024-03-23T13:21:19;100098.01;;;22.17;42.71
76808;BME280;65758;45.458;11.062;2024-03-23T13:23:47;100091.76;;;22.07;43.01
76808;BME280;65758;45.458;11.062;2024-03-23T13:26:14;100089.45;;;21.97;42.60
76808;BME280;65758;45.458;11.062;2024-03-23T13:28:43;100091.84;;;21.85;42.82
76808;BME280;65758;45.458;11.062;2024-03-23T13:31:11;100095.02;;;21.74;42.72
76808;BME280;65758;45.458;11.062;2024-03-23T13:33:37;100088.87;;;21.64;42.90
76808;BME280;65758;45.458;11.062;2024-03-23T13:36:04;100082.30;;;21.53;42.79
76808;BME280;65758;45.458;11.062;2024-03-23T13:38:31;100078.35;;;21.43;43.16
76808;BME280;65758;45.458;11.062;2024-03-23T13:40:59;100077.39;;;21.37;43.60
76808;BME280;65758;45.458;11.062;2024-03-23T13:43:27;100071.73;;;21.34;43.35
76808;BME280;65758;45.458;11.062;2024-03-23T13:45:56;100075.56;;;21.31;43.48